Time;durP1;ratioP1;P1;durP2;ratioP2;P2;SDS_P1;SDS_P2;PMS_P1;PMS_P2;Temp;Humidity;BMP_temperature;BMP_pressure;BME280_temperature;BME280_humidity;BME280_pressure;Samples;Min_cycle;Max_cycle;Signal;HPM_P1;HPM_P2
2024/01/11 00:02:35;;;;;;;51.87;18.50;;;;;-4.80;97150.00;;;;8270633;28;20748;-64
2024/01/11 00:06:42;;;;;;;57.03;17.77;;;;;-4.80;97161.00;;;;8277028;28;20202;-64
2024/01/11 00:10:47;;;;;;;52.90;22.10;;;;;-4.90;97153.00;;;;8272387;28;20208;-64
2024/01/11 00:14:50;;;;;;;57.47;19.97;;;;;-4.90;97149.00;;;;8268545;28;20214;-65
2024/01/11 00:18:53;;;;;;;53.80;21.00;;;;;-4.90;97146.00;;;;8267484;28;20212;-64
2024/01/11 00:22:56;;;;;;;59.43;21.43;;;;;-4.90;97139.00;;;;8270347;28;20253;-64
2024/01/11 00:27:00;;;;;;;51.63;19.47;;;;;-5.00;97142.00;;;;8271953;28;20813;-64
2024/01/11 00:31:04;;;;;;;45.57;18.73;;;;;-5.10;97146.00;;;;8274058;28;20218;-65
2024/01/11 00:35:07;;;;;;;44.17;16.50;;;;;-5.10;97146.00;;;;8269476;28;20206;-64
2024/01/11 00:39:11;;;;;;;59.47;22.90;;;;;-5.10;97142.00;;;;8268246;28;20201;-64
2024/01/11 00:43:16;;;;;;;68.00;24.67;;;;;-5.20;97153.00;;;;8264083;28;20226;-64
2024/01/11 00:47:19;;;;;;;64.60;22.00;;;;;-5.20;97154.00;;;;8270808;28;20292;-65
2024/01/11 00:51:22;;;;;;;71.07;26.33;;;;;-5.30;97158.00;;;;8268492;28;20208;-65
2024/01/11 00:55:25;;;;;;;59.80;22.53;;;;;-5.30;97153.00;;;;8270260;28;20207;-65
2024/01/11 00:59:30;;;;;;;63.27;22.47;;;;;-5.30;97159.00;;;;8266720;28;20208;-65
2024/01/11 01:03:33;;;;;;;60.03;22.77;;;;;-5.30;97152.00;;;;8273006;28;20244;-65
2024/01/11 01:07:36;;;;;;;65.30;20.70;;;;;-5.30;97143.00;;;;8266875;28;20228;-64
2024/01/11 01:11:40;;;;;;;65.97;21.97;;;;;-5.30;97149.00;;;;8269426;28;20963;-63
2024/01/11 01:15:45;;;;;;;63.20;23.23;;;;;-5.30;97151.00;;;;8269951;28;20210;-64
2024/01/11 01:19:48;;;;;;;58.63;20.33;;;;;-5.30;97153.00;;;;8272183;28;20693;-64
2024/01/11 01:23:52;;;;;;;59.47;20.27;;;;;-5.30;97159.00;;;;8266351;28;20821;-64
2024/01/11 01:27:55;;;;;;;36.30;12.93;;;;;-5.30;97141.00;;;;8269504;28;20717;-63
2024/01/11 01:31:59;;;;;;;63.60;23.77;;;;;-5.30;97145.00;;;;8268203;28;20213;-63
2024/01/11 01:36:02;;;;;;;54.53;22.10;;;;;-5.40;97138.00;;;;8273779;28;20287;-63
2024/01/11 01:40:07;;;;;;;66.90;23.03;;;;;-5.40;97149.00;;;;8266588;28;20210;-64
2024/01/11 01:44:10;;;;;;;62.00;21.57;;;;;-5.40;97145.00;;;;8261292;28;20264;-64
2024/01/11 01:48:15;;;;;;;59.40;21.43;;;;;-5.40;97145.00;;;;8271547;28;21107;-63
2024/01/11 01:52:20;;;;;;;58.33;21.37;;;;;-5.50;97147.00;;;;8272328;28;20248;-64
2024/01/11 01:56:23;;;;;;;66.20;21.07;;;;;-5.50;97153.00;;;;8267661;28;20289;-64
2024/01/11 02:00:27;;;;;;;66.90;27.47;;;;;-5.50;97152.00;;;;8256220;28;21110;-64
2024/01/11 02:04:32;;;;;;;56.03;18.70;;;;;-5.50;97153.00;;;;8269901;28;20255;-66
2024/01/11 02:08:36;;;;;;;66.03;21.27;;;;;-5.50;97162.00;;;;8266380;28;20210;-65
2024/01/11 02:12:42;;;;;;;68.80;23.80;;;;;-5.50;97153.00;;;;8267277;28;20210;-64
2024/01/11 02:16:45;;;;;;;68.47;22.60;;;;;-5.50;97155.00;;;;8262705;28;20219;-64
2024/01/11 02:20:50;;;;;;;63.40;22.87;;;;;-5.50;97151.00;;;;8267031;28;20221;-65
2024/01/11 02:24:54;;;;;;;69.17;24.20;;;;;-5.50;97153.00;;;;8262891;28;20260;-65
2024/01/11 02:28:57;;;;;;;70.70;25.00;;;;;-5.50;97144.00;;;;8265079;28;20842;-65
2024/01/11 02:33:02;;;;;;;72.37;24.87;;;;;-5.50;97145.00;;;;8262134;28;20214;-65
2024/01/11 02:37:06;;;;;;;71.40;21.93;;;;;-5.60;97132.00;;;;8268116;28;20223;-64
2024/01/11 02:41:12;;;;;;;72.10;24.30;;;;;-5.70;97134.00;;;;8263665;28;20217;-64
2024/01/11 02:45:15;;;;;;;63.30;21.30;;;;;-5.70;97135.00;;;;8260416;28;20233;-64
2024/01/11 02:49:18;;;;;;;64.10;21.13;;;;;-5.80;97135.00;;;;8261952;28;20210;-65
2024/01/11 02:53:22;;;;;;;52.93;20.67;;;;;-5.90;97144.00;;;;8267397;28;20218;-65
2024/01/11 02:57:26;;;;;;;62.80;21.20;;;;;-6.00;97133.00;;;;8263984;28;20687;-65
2024/01/11 03:01:29;;;;;;;57.80;21.63;;;;;-6.10;97129.00;;;;8302581;22;20347;-64
2024/01/11 03:05:32;;;;;;;67.27;22.47;;;;;-6.20;97125.00;;;;8232727;28;20805;-64
2024/01/11 03:09:36;;;;;;;53.00;21.10;;;;;-6.30;97116.00;;;;8231945;28;20215;-63
2024/01/11 03:13:40;;;;;;;58.43;21.90;;;;;-6.40;97126.00;;;;8232208;28;20301;-64
2024/01/11 03:17:43;;;;;;;58.70;22.40;;;;;-6.50;97119.00;;;;8236476;28;20238;-64
2024/01/11 03:21:47;;;;;;;66.90;21.80;;;;;-6.70;97110.00;;;;8238170;28;20674;-64
2024/01/11 03:25:50;;;;;;;56.77;20.57;;;;;-6.80;97110.00;;;;8234763;28;20713;-65
2024/01/11 03:29:55;;;;;;;58.60;20.97;;;;;-6.80;97107.00;;;;8230660;28;21418;-65
2024/01/11 03:33:58;;;;;;;60.40;21.20;;;;;-6.70;97110.00;;;;8239467;28;20299;-65
2024/01/11 03:38:01;;;;;;;66.40;22.33;;;;;-6.60;97107.00;;;;8239804;28;20281;-65
2024/01/11 03:42:06;;;;;;;56.00;20.87;;;;;-6.70;97105.00;;;;8234359;28;20214;-64
2024/01/11 03:46:10;;;;;;;70.63;22.93;;;;;-6.70;97098.00;;;;8237346;28;20233;-64
2024/01/11 03:50:13;;;;;;;59.63;20.83;;;;;-6.60;97108.00;;;;8239198;28;20356;-63
2024/01/11 03:54:17;;;;;;;58.37;21.30;;;;;-6.60;97097.00;;;;8241435;28;20206;-64
2024/01/11 03:58:20;;;;;;;64.77;20.97;;;;;-6.60;97098.00;;;;8237835;28;20221;-64
2024/01/11 04:02:24;;;;;;;62.77;22.67;;;;;-6.60;97090.00;;;;8237868;28;20239;-63
2024/01/11 04:06:28;;;;;;;62.07;22.03;;;;;-6.60;97091.00;;;;8241028;28;20234;-64
2024/01/11 04:10:31;;;;;;;51.97;19.93;;;;;-6.60;97107.00;;;;8232601;28;20250;-64
2024/01/11 04:14:34;;;;;;;57.20;21.67;;;;;-6.70;97098.00;;;;8234246;28;20209;-64
2024/01/11 04:18:38;;;;;;;68.37;21.23;;;;;-6.70;97098.00;;;;8233402;28;21180;-64
2024/01/11 04:22:42;;;;;;;64.03;21.03;;;;;-6.70;97103.00;;;;8237852;28;20201;-64
2024/01/11 04:26:45;;;;;;;61.00;20.63;;;;;-6.70;97100.00;;;;8234519;28;20690;-64
2024/01/11 04:30:49;;;;;;;62.63;21.97;;;;;-6.70;97096.00;;;;8238139;28;20207;-64
2024/01/11 04:34:53;;;;;;;60.60;21.67;;;;;-6.70;97090.00;;;;8240011;28;20225;-64
2024/01/11 04:38:57;;;;;;;58.30;20.30;;;;;-6.70;97098.00;;;;8243725;28;20207;-64
2024/01/11 04:43:00;;;;;;;58.63;20.47;;;;;-6.70;97096.00;;;;8241620;28;20293;-65
2024/01/11 04:47:03;;;;;;;58.33;22.73;;;;;-6.70;97106.00;;;;8243722;28;20819;-64
2024/01/11 04:51:07;;;;;;;58.53;20.13;;;;;-6.70;97120.00;;;;8236871;28;20218;-64
2024/01/11 04:55:10;;;;;;;57.83;22.00;;;;;-6.80;97121.00;;;;8242384;28;20232;-64
2024/01/11 04:59:14;;;;;;;61.30;22.20;;;;;-6.80;97114.00;;;;8235828;28;20289;-64
2024/01/11 05:03:17;;;;;;;66.77;20.90;;;;;-6.80;97125.00;;;;8240067;28;20325;-64
2024/01/11 05:07:21;;;;;;;66.57;21.43;;;;;-6.80;97122.00;;;;8243379;28;20337;-64
2024/01/11 05:11:25;;;;;;;60.80;21.37;;;;;-6.80;97131.00;;;;8236790;28;20858;-64
2024/01/11 05:15:28;;;;;;;69.60;25.07;;;;;-6.80;97142.00;;;;8236957;28;20217;-64
2024/01/11 05:19:31;;;;;;;66.77;23.73;;;;;-6.70;97132.00;;;;8238120;28;20300;-64
2024/01/11 05:23:36;;;;;;;64.47;23.00;;;;;-6.60;97138.00;;;;8232574;28;20256;-63
2024/01/11 05:27:39;;;;;;;65.37;23.07;;;;;-6.50;97146.00;;;;8235991;28;20210;-63
2024/01/11 05:31:42;;;;;;;49.13;19.43;;;;;-6.50;97136.00;;;;8238858;28;20249;-63
2024/01/11 05:35:46;;;;;;;65.60;21.73;;;;;-6.30;97133.00;;;;8232988;28;22407;-63
2024/01/11 05:39:50;;;;;;;64.60;23.07;;;;;-6.30;97131.00;;;;8220843;28;20203;-63
2024/01/11 05:43:54;;;;;;;58.13;21.63;;;;;-6.30;97134.00;;;;8227360;28;20226;-64
2024/01/11 05:47:57;;;;;;;62.60;21.17;;;;;-6.30;97132.00;;;;8228231;28;20207;-64
2024/01/11 05:52:00;;;;;;;67.70;22.47;;;;;-6.40;97130.00;;;;8228251;28;20473;-63
2024/01/11 05:56:10;;;;;;;63.93;22.57;;;;;-6.50;97133.00;;;;8228625;28;20228;-64
2024/01/11 06:00:14;;;;;;;61.27;21.33;;;;;-6.60;97141.00;;;;8232933;28;20888;-64
2024/01/11 06:04:17;;;;;;;61.33;22.03;;;;;-6.70;97150.00;;;;8226879;28;21346;-64
2024/01/11 06:08:20;;;;;;;76.40;24.73;;;;;-6.80;97138.00;;;;8224968;28;20202;-64
2024/01/11 06:12:25;;;;;;;69.50;24.40;;;;;-6.90;97142.00;;;;8231911;28;20206;-64
2024/01/11 06:16:28;;;;;;;70.13;23.57;;;;;-7.00;97137.00;;;;8229724;28;20348;-63
2024/01/11 06:20:31;;;;;;;63.57;23.77;;;;;-7.10;97142.00;;;;8229727;28;20300;-63
2024/01/11 06:24:34;;;;;;;64.83;22.03;;;;;-7.10;97122.00;;;;8226615;28;20242;-65
2024/01/11 06:28:39;;;;;;;66.03;23.13;;;;;-7.20;97124.00;;;;8224192;28;20210;-64
2024/01/11 06:32:42;;;;;;;71.90;23.53;;;;;-7.30;97124.00;;;;8223059;28;20213;-64
2024/01/11 06:36:46;;;;;;;67.57;22.90;;;;;-7.20;97134.00;;;;8230082;28;20214;-64
2024/01/11 06:40:49;;;;;;;65.10;23.60;;;;;-7.20;97146.00;;;;8221281;28;20621;-64
2024/01/11 06:44:53;;;;;;;59.83;21.97;;;;;-7.10;97146.00;;;;8216382;28;20231;-64
2024/01/11 06:48:57;;;;;;;68.10;23.23;;;;;-7.10;97153.00;;;;8204520;28;20217;-64
2024/01/11 06:53:01;;;;;;;67.33;22.70;;;;;-7.00;97163.00;;;;8216787;28;21089;-65
2024/01/11 06:57:04;;;;;;;76.67;24.70;;;;;-6.90;97172.00;;;;8216692;28;20675;-65
2024/01/11 07:01:09;;;;;;;69.63;22.23;;;;;-6.80;97171.00;;;;8219865;28;20873;-65
2024/01/11 07:05:12;;;;;;;65.90;24.47;;;;;-6.70;97173.00;;;;8218968;28;20328;-63
2024/01/11 07:09:16;;;;;;;68.80;23.53;;;;;-6.70;97179.00;;;;8235275;28;20209;-64
2024/01/11 07:13:19;;;;;;;69.20;23.43;;;;;-6.70;97174.00;;;;8230031;28;20233;-66
2024/01/11 07:17:25;;;;;;;70.33;25.97;;;;;-6.70;97182.00;;;;8227509;28;20210;-64
2024/01/11 07:21:31;;;;;;;61.23;22.83;;;;;-6.60;97186.00;;;;8224978;28;20269;-64
2024/01/11 07:25:34;;;;;;;64.97;23.60;;;;;-6.60;97188.00;;;;8223743;28;20695;-64
2024/01/11 07:29:38;;;;;;;72.53;24.30;;;;;-6.60;97196.00;;;;8226030;28;20644;-64
2024/01/11 07:33:42;;;;;;;53.43;17.77;;;;;-6.40;97207.00;;;;8215325;28;20252;-64
2024/01/11 07:37:45;;;;;;;56.17;23.87;;;;;-6.30;97204.00;;;;8217702;28;20858;-64
2024/01/11 07:41:49;;;;;;;63.87;22.37;;;;;-6.20;97212.00;;;;8220637;28;20241;-63
2024/01/11 07:45:52;;;;;;;66.00;23.97;;;;;-6.10;97203.00;;;;8229485;28;20353;-64
2024/01/11 07:49:57;;;;;;;95.90;36.00;;;;;-6.00;97200.00;;;;8220351;28;20300;-64
2024/01/11 07:54:00;;;;;;;75.07;28.93;;;;;-5.90;97203.00;;;;8226238;28;20214;-65
2024/01/11 07:58:04;;;;;;;78.17;23.43;;;;;-5.90;97210.00;;;;8235401;28;20253;-64
2024/01/11 08:02:07;;;;;;;68.23;23.23;;;;;-5.90;97207.00;;;;8227095;28;20227;-63
2024/01/11 08:06:12;;;;;;;62.73;23.67;;;;;-5.80;97217.00;;;;8228571;28;20268;-64
2024/01/11 08:10:16;;;;;;;62.33;22.20;;;;;-5.70;97206.00;;;;8224511;28;20608;-63
2024/01/11 08:14:19;;;;;;;79.47;27.73;;;;;-5.60;97221.00;;;;8227503;28;20205;-63
2024/01/11 08:18:22;;;;;;;65.17;24.90;;;;;-5.50;97219.00;;;;8223424;28;21186;-63
2024/01/11 08:22:35;;;;;;;76.17;27.20;;;;;-5.40;97249.00;;;;8228065;28;20810;-64
2024/01/11 08:26:39;;;;;;;41.77;14.90;;;;;-5.30;97234.00;;;;8224359;28;20309;-62
2024/01/11 08:30:42;;;;;;;50.47;19.30;;;;;-5.20;97258.00;;;;8223766;28;20213;-63
2024/01/11 08:34:45;;;;;;;62.37;25.27;;;;;-5.10;97247.00;;;;8227360;28;20276;-63
2024/01/11 08:38:51;;;;;;;65.17;24.50;;;;;-5.00;97254.00;;;;8223545;28;20208;-63
2024/01/11 08:42:54;;;;;;;67.10;24.13;;;;;-4.90;97247.00;;;;8222275;28;20213;-63
2024/01/11 08:46:59;;;;;;;72.00;26.17;;;;;-4.70;97242.00;;;;8220747;28;20361;-63
2024/01/11 08:51:02;;;;;;;68.77;23.73;;;;;-4.60;97241.00;;;;8225165;28;20221;-63
2024/01/11 08:55:08;;;;;;;65.87;24.83;;;;;-4.50;97227.00;;;;8225073;28;20211;-63
2024/01/11 08:59:12;;;;;;;53.70;19.70;;;;;-4.40;97222.00;;;;8228448;28;20206;-63
2024/01/11 09:03:16;;;;;;;67.90;23.30;;;;;-4.30;97223.00;;;;8226993;28;20239;-63
2024/01/11 09:07:20;;;;;;;63.50;23.90;;;;;-4.20;97221.00;;;;8247340;28;20298;-64
2024/01/11 09:11:32;;;;;;;60.43;22.37;;;;;-4.10;97225.00;;;;8267779;28;20207;-64
2024/01/11 09:15:35;;;;;;;61.13;23.83;;;;;-4.00;97207.00;;;;8268728;28;20528;-64
2024/01/11 09:19:39;;;;;;;68.03;24.60;;;;;-3.80;97212.00;;;;8268709;28;20230;-65
2024/01/11 09:23:43;;;;;;;57.63;21.97;;;;;-3.70;97205.00;;;;8267303;28;20551;-64
2024/01/11 09:27:49;;;;;;;58.13;22.33;;;;;-3.60;97211.00;;;;8266371;28;20222;-64
2024/01/11 09:31:52;;;;;;;75.73;24.17;;;;;-3.50;97207.00;;;;8268084;28;20295;-64
2024/01/11 09:35:56;;;;;;;58.40;24.27;;;;;-3.40;97181.00;;;;8267249;28;20194;-64
2024/01/11 09:40:00;;;;;;;69.77;25.10;;;;;-3.20;97181.00;;;;8266783;28;20241;-64
2024/01/11 09:44:06;;;;;;;57.10;22.63;;;;;-3.00;97173.00;;;;8267449;28;20205;-64
2024/01/11 09:48:11;;;;;;;60.10;23.43;;;;;-2.80;97192.00;;;;8267320;28;20234;-64
2024/01/11 09:52:17;;;;;;;56.40;23.37;;;;;-2.70;97204.00;;;;8267132;28;20191;-64
2024/01/11 09:56:20;;;;;;;65.37;24.53;;;;;-2.70;97195.00;;;;8266517;28;20218;-64
2024/01/11 10:00:25;;;;;;;57.57;22.77;;;;;-2.60;97176.00;;;;8266954;28;20199;-65
2024/01/11 10:04:29;;;;;;;54.77;22.67;;;;;-2.40;97183.00;;;;8268057;28;20564;-64
2024/01/11 10:08:33;;;;;;;64.80;22.53;;;;;-2.40;97193.00;;;;8265863;28;20683;-64
2024/01/11 10:12:36;;;;;;;62.53;24.10;;;;;-2.40;97201.00;;;;8266801;28;20205;-64
2024/01/11 10:16:42;;;;;;;62.87;23.50;;;;;-2.30;97212.00;;;;8266040;28;20202;-64
2024/01/11 10:20:46;;;;;;;56.13;22.00;;;;;-2.20;97212.00;;;;8265094;28;20952;-64
2024/01/11 10:24:49;;;;;;;62.77;23.87;;;;;-2.10;97223.00;;;;8265660;28;20195;-65
2024/01/11 10:28:52;;;;;;;54.83;22.03;;;;;-2.10;97219.00;;;;8265303;28;20254;-64
2024/01/11 10:32:58;;;;;;;56.80;23.40;;;;;-2.00;97213.00;;;;8265067;28;20513;-64
2024/01/11 10:37:02;;;;;;;59.83;21.90;;;;;-1.90;97197.00;;;;8264253;28;20183;-64
2024/01/11 10:41:06;;;;;;;58.53;21.67;;;;;-1.90;97201.00;;;;8265436;28;20462;-64
2024/01/11 10:45:16;;;;;;;54.20;21.30;;;;;-1.80;97201.00;;;;8263098;28;20250;-64
2024/01/11 10:49:25;;;;;;;56.57;23.33;;;;;-1.80;97205.00;;;;8262245;28;20187;-64
2024/01/11 10:53:36;;;;;;;56.13;21.27;;;;;-1.60;97201.00;;;;8265963;28;20220;-64
2024/01/11 10:57:40;;;;;;;56.63;24.07;;;;;-1.60;97206.00;;;;8265478;28;20179;-65
2024/01/11 11:01:45;;;;;;;57.90;24.33;;;;;-1.50;97236.00;;;;8265894;28;20226;-65
2024/01/11 11:05:53;;;;;;;61.13;23.93;;;;;-1.40;97220.00;;;;8264833;28;20667;-64
2024/01/11 11:09:58;;;;;;;55.27;20.03;;;;;-1.30;97223.00;;;;8264777;28;20187;-65
2024/01/11 11:14:02;;;;;;;52.50;20.43;;;;;-1.20;97208.00;;;;8264430;28;20582;-65
2024/01/11 11:18:07;;;;;;;49.50;20.77;;;;;-1.20;97212.00;;;;8267077;28;20205;-65
2024/01/11 11:22:14;;;;;;;56.63;21.70;;;;;-1.20;97203.00;;;;8271610;28;20199;-65
2024/01/11 11:26:18;;;;;;;51.90;21.30;;;;;-1.20;97175.00;;;;8271558;28;20215;-65
2024/01/11 11:30:24;;;;;;;53.87;19.20;;;;;-1.20;97196.00;;;;8271912;28;20227;-64
2024/01/11 11:34:42;;;;;;;49.70;20.83;;;;;-1.10;97197.00;;;;8271703;28;20192;-63
2024/01/11 11:38:47;;;;;;;46.73;19.23;;;;;-1.00;97198.00;;;;8270764;28;20191;-62
2024/01/11 11:42:50;;;;;;;46.93;20.23;;;;;-1.00;97198.00;;;;8270992;28;20196;-64
2024/01/11 11:46:54;;;;;;;55.87;23.50;;;;;-0.90;97185.00;;;;8270617;28;20233;-63
2024/01/11 11:51:02;;;;;;;50.97;19.63;;;;;-0.90;97168.00;;;;8270515;28;20230;-63
2024/01/11 11:55:09;;;;;;;53.53;21.27;;;;;-0.80;97151.00;;;;8270032;28;20279;-63
2024/01/11 11:59:12;;;;;;;46.13;20.07;;;;;-0.70;97163.00;;;;8270563;28;20276;-64
2024/01/11 12:03:17;;;;;;;42.10;18.40;;;;;-0.60;97163.00;;;;8270129;28;20231;-64
2024/01/11 12:07:22;;;;;;;46.00;19.33;;;;;-0.60;97169.00;;;;8268158;28;20213;-65
2024/01/11 12:11:33;;;;;;;45.00;19.97;;;;;-0.50;97182.00;;;;8269505;28;20195;-65
2024/01/11 12:15:41;;;;;;;43.60;18.00;;;;;-0.50;97183.00;;;;8270007;28;20226;-65
2024/01/11 12:19:44;;;;;;;42.30;19.87;;;;;-0.40;97184.00;;;;8269822;28;20198;-65
2024/01/11 12:23:48;;;;;;;44.60;18.47;;;;;-0.40;97183.00;;;;8269338;28;20278;-65
2024/01/11 12:27:53;;;;;;;44.17;18.20;;;;;-0.30;97174.00;;;;8269417;28;20317;-64
2024/01/11 12:31:58;;;;;;;47.77;18.63;;;;;-0.30;97160.00;;;;8269106;28;20212;-64
2024/01/11 12:36:01;;;;;;;44.37;19.63;;;;;-0.20;97154.00;;;;8268903;28;20199;-64
2024/01/11 12:40:06;;;;;;;41.93;18.77;;;;;-0.10;97163.00;;;;8270608;28;20604;-64
2024/01/11 12:44:10;;;;;;;41.67;19.20;;;;;-0.10;97143.00;;;;8269319;28;20462;-64
2024/01/11 12:48:16;;;;;;;43.47;18.30;;;;;0.00;97142.00;;;;8269427;28;20229;-64
2024/01/11 12:52:20;;;;;;;39.90;17.20;;;;;0.00;97137.00;;;;8268704;28;20281;-64
2024/01/11 12:56:24;;;;;;;41.43;16.73;;;;;0.20;97132.00;;;;8268736;28;20514;-64
2024/01/11 13:00:32;;;;;;;40.07;16.87;;;;;0.20;97150.00;;;;8268067;28;20247;-65
2024/01/11 13:04:37;;;;;;;39.10;16.70;;;;;0.30;97143.00;;;;8268810;28;20223;-64
2024/01/11 13:08:41;;;;;;;38.37;16.97;;;;;0.30;97140.00;;;;8267710;28;20319;-64
2024/01/11 13:12:45;;;;;;;40.97;17.27;;;;;0.40;97138.00;;;;8268453;28;20205;-63
2024/01/11 13:17:00;;;;;;;48.13;16.57;;;;;0.30;97128.00;;;;8268754;28;20210;-64
2024/01/11 13:21:06;;;;;;;38.80;18.03;;;;;0.30;97126.00;;;;8267786;28;20199;-64
2024/01/11 13:25:10;;;;;;;41.37;17.67;;;;;0.40;97119.00;;;;8268312;28;20180;-64
2024/01/11 13:29:13;;;;;;;44.57;17.90;;;;;0.50;97135.00;;;;8268197;28;20320;-64
2024/01/11 13:33:19;;;;;;;40.40;17.00;;;;;0.50;97141.00;;;;8267996;28;20629;-64
2024/01/11 13:37:22;;;;;;;46.73;17.90;;;;;0.50;97148.00;;;;8266953;28;20674;-65
2024/01/11 13:41:25;;;;;;;41.67;17.67;;;;;0.50;97146.00;;;;8267955;28;20201;-64
2024/01/11 13:45:29;;;;;;;41.03;17.30;;;;;0.60;97149.00;;;;8267011;28;20212;-64
2024/01/11 13:49:34;;;;;;;37.50;15.97;;;;;0.70;97148.00;;;;8266929;28;20233;-64
2024/01/11 13:53:37;;;;;;;43.67;15.07;;;;;0.70;97135.00;;;;8267321;28;20190;-65
2024/01/11 13:57:41;;;;;;;36.10;15.93;;;;;0.80;97147.00;;;;8266491;28;20481;-65
2024/01/11 14:01:44;;;;;;;32.77;14.57;;;;;0.80;97148.00;;;;8266873;28;20327;-64
2024/01/11 14:05:49;;;;;;;37.80;16.40;;;;;0.80;97148.00;;;;8267198;28;20293;-65
2024/01/11 14:09:52;;;;;;;40.70;16.77;;;;;0.90;97143.00;;;;8266308;28;20230;-64
2024/01/11 14:13:56;;;;;;;34.47;15.07;;;;;1.00;97145.00;;;;8267260;28;20660;-64
2024/01/11 14:17:59;;;;;;;39.97;15.70;;;;;1.00;97139.00;;;;8266942;28;20660;-64
2024/01/11 14:22:04;;;;;;;36.37;15.40;;;;;1.10;97139.00;;;;8266126;28;20240;-64
2024/01/11 14:26:07;;;;;;;37.03;16.33;;;;;1.10;97130.00;;;;8266336;28;20304;-64
2024/01/11 14:30:11;;;;;;;35.27;15.80;;;;;1.10;97136.00;;;;8266446;28;20219;-73
2024/01/11 14:34:14;;;;;;;38.13;15.83;;;;;1.00;97134.00;;;;8266365;28;20641;-71
2024/01/11 14:38:19;;;;;;;35.80;15.13;;;;;1.00;97129.00;;;;8265423;28;20197;-71
2024/01/11 14:42:22;;;;;;;34.87;15.43;;;;;1.00;97110.00;;;;8266090;28;20251;-68
2024/01/11 14:46:25;;;;;;;43.13;17.90;;;;;1.10;97102.00;;;;8266660;28;20199;-67
2024/01/11 14:50:29;;;;;;;38.17;16.73;;;;;1.20;97123.00;;;;8265802;28;20230;-68
2024/01/11 14:54:35;;;;;;;41.77;16.37;;;;;1.20;97129.00;;;;8270393;28;20199;-68
2024/01/11 14:58:38;;;;;;;33.47;14.63;;;;;1.10;97132.00;;;;8272466;28;20536;-69
2024/01/11 15:02:41;;;;;;;40.60;17.03;;;;;1.00;97156.00;;;;8270658;28;20259;-72
2024/01/11 15:06:45;;;;;;;35.00;15.63;;;;;0.90;97163.00;;;;8270674;28;20368;-71
2024/01/11 15:10:50;;;;;;;40.00;17.57;;;;;0.80;97156.00;;;;8268099;28;20201;-71
2024/01/11 15:14:54;;;;;;;33.87;15.73;;;;;0.80;97155.00;;;;8270181;28;20579;-71
2024/01/11 15:18:58;;;;;;;36.67;15.43;;;;;0.70;97156.00;;;;8270866;28;20197;-72
2024/01/11 15:23:03;;;;;;;35.77;14.77;;;;;0.60;97159.00;;;;8271791;28;20704;-71
2024/01/11 15:27:07;;;;;;;33.83;15.20;;;;;0.50;97162.00;;;;8270617;28;20236;-73
2024/01/11 15:31:10;;;;;;;34.37;15.30;;;;;0.30;97162.00;;;;8270329;28;20196;-69
2024/01/11 15:35:14;;;;;;;36.73;16.70;;;;;0.10;97159.00;;;;8271243;28;20293;-71
2024/01/11 15:39:20;;;;;;;44.17;16.70;;;;;-0.20;97164.00;;;;8270674;28;20202;-71
2024/01/11 15:43:33;;;;;;;36.20;15.97;;;;;-0.40;97164.00;;;;8270119;28;20222;-70
2024/01/11 15:47:36;;;;;;;40.23;15.37;;;;;-0.60;97163.00;;;;8269417;28;20261;-71
2024/01/11 15:51:39;;;;;;;37.80;16.73;;;;;-0.80;97162.00;;;;8270394;28;20201;-71
2024/01/11 15:55:42;;;;;;;37.73;15.57;;;;;-1.10;97168.00;;;;8270094;28;20239;-71
2024/01/11 15:59:47;;;;;;;47.90;16.77;;;;;-1.30;97158.00;;;;8266231;28;20234;-71
2024/01/11 16:03:51;;;;;;;66.00;27.27;;;;;-1.40;97144.00;;;;8267773;28;20218;-72
2024/01/11 16:07:55;;;;;;;39.57;17.37;;;;;-1.50;97166.00;;;;8270455;28;20563;-71
2024/01/11 16:11:58;;;;;;;45.40;17.40;;;;;-1.60;97164.00;;;;8268648;28;20196;-70
2024/01/11 16:16:08;;;;;;;40.80;17.57;;;;;-1.70;97170.00;;;;8267191;28;20215;-71
2024/01/11 16:20:12;;;;;;;50.33;18.80;;;;;-1.90;97176.00;;;;8269976;28;20631;-70
2024/01/11 16:24:15;;;;;;;52.40;19.00;;;;;-1.90;97181.00;;;;8270150;28;20638;-71
2024/01/11 16:28:19;;;;;;;53.77;20.03;;;;;-2.00;97183.00;;;;8269413;28;20230;-70
2024/01/11 16:32:23;;;;;;;51.47;19.63;;;;;-2.10;97183.00;;;;8269445;28;20190;-70
2024/01/11 16:36:27;;;;;;;72.00;24.33;;;;;-2.20;97175.00;;;;8268076;28;20194;-69
2024/01/11 16:40:30;;;;;;;78.80;24.83;;;;;-2.30;97181.00;;;;8268973;28;20237;-69
2024/01/11 16:44:33;;;;;;;66.50;24.00;;;;;-2.40;97183.00;;;;8268447;28;20195;-70
2024/01/11 16:48:41;;;;;;;56.17;22.57;;;;;-2.50;97171.00;;;;8268827;28;20240;-69
2024/01/11 16:52:44;;;;;;;66.13;23.17;;;;;-2.50;97187.00;;;;8268894;28;20187;-71
2024/01/11 16:56:47;;;;;;;58.30;20.90;;;;;-2.50;97181.00;;;;8268715;28;20202;-71
2024/01/11 17:00:51;;;;;;;53.43;21.87;;;;;-2.50;97187.00;;;;8269360;28;20217;-71
2024/01/11 17:04:55;;;;;;;52.23;21.37;;;;;-2.40;97178.00;;;;8269655;28;20301;-71
2024/01/11 17:08:59;;;;;;;55.20;20.47;;;;;-2.30;97185.00;;;;8268503;28;20230;-70
2024/01/11 17:13:02;;;;;;;58.30;23.40;;;;;-2.30;97182.00;;;;8268118;28;20231;-70
2024/01/11 17:17:06;;;;;;;70.37;25.07;;;;;-2.10;97177.00;;;;8267185;28;20195;-70
2024/01/11 17:21:11;;;;;;;61.13;24.07;;;;;-2.10;97168.00;;;;8267923;28;20268;-72
2024/01/11 17:25:14;;;;;;;61.53;22.20;;;;;-2.00;97186.00;;;;8268134;28;20210;-72
2024/01/11 17:29:18;;;;;;;50.90;21.27;;;;;-1.80;97188.00;;;;8268003;28;20530;-71
2024/01/11 17:33:21;;;;;;;58.10;20.70;;;;;-1.70;97184.00;;;;8268178;28;20625;-71
2024/01/11 17:37:26;;;;;;;48.23;18.73;;;;;-1.60;97185.00;;;;8267931;28;20196;-71
2024/01/11 17:41:29;;;;;;;50.03;19.53;;;;;-1.60;97185.00;;;;8267521;28;20835;-70
2024/01/11 17:45:35;;;;;;;44.97;19.40;;;;;-1.60;97180.00;;;;8267891;28;20249;-71
2024/01/11 17:49:38;;;;;;;56.17;20.13;;;;;-1.50;97183.00;;;;8267563;28;20243;-71
2024/01/11 17:53:44;;;;;;;49.57;20.17;;;;;-1.60;97177.00;;;;8267848;28;20537;-73
2024/01/11 17:57:47;;;;;;;52.73;20.43;;;;;-1.60;97181.00;;;;8266467;28;20478;-73
2024/01/11 18:01:50;;;;;;;51.83;20.80;;;;;-1.60;97183.00;;;;8267384;28;20227;-73
2024/01/11 18:05:54;;;;;;;47.90;20.63;;;;;-1.60;97181.00;;;;8267737;28;20183;-71
2024/01/11 18:09:58;;;;;;;53.30;21.70;;;;;-1.60;97184.00;;;;8267030;28;20222;-71
2024/01/11 18:14:02;;;;;;;50.57;20.87;;;;;-1.40;97186.00;;;;8267559;28;20204;-72
2024/01/11 18:18:07;;;;;;;50.43;21.87;;;;;-1.40;97177.00;;;;8266686;28;20238;-72
2024/01/11 18:22:10;;;;;;;50.20;21.67;;;;;-1.20;97173.00;;;;8267649;28;20637;-72
2024/01/11 18:26:16;;;;;;;59.43;22.27;;;;;-1.20;97180.00;;;;8266031;28;20199;-71
2024/01/11 18:30:21;;;;;;;61.73;25.20;;;;;-1.10;97175.00;;;;8266110;28;20294;-71
2024/01/11 18:34:24;;;;;;;62.47;23.00;;;;;-1.10;97187.00;;;;8266719;28;20529;-72
2024/01/11 18:38:28;;;;;;;56.87;22.97;;;;;-1.10;97195.00;;;;8264826;28;20242;-72
2024/01/11 18:42:33;;;;;;;59.77;24.30;;;;;-1.00;97208.00;;;;8265725;28;20199;-71
2024/01/11 18:46:38;;;;;;;53.77;22.00;;;;;-1.00;97203.00;;;;8265996;28;20202;-71
2024/01/11 18:50:42;;;;;;;60.50;23.50;;;;;-1.00;97195.00;;;;8265911;28;20295;-71
2024/01/11 18:54:45;;;;;;;55.93;22.53;;;;;-1.00;97204.00;;;;8265166;28;20203;-71
2024/01/11 18:58:57;;;;;;;52.23;22.37;;;;;-1.10;97201.00;;;;8266518;28;20188;-71
2024/01/11 19:03:00;;;;;;;56.97;22.97;;;;;-1.10;97186.00;;;;8265944;28;20257;-72
2024/01/11 19:07:03;;;;;;;53.17;21.97;;;;;-1.10;97180.00;;;;8265335;28;20558;-71
2024/01/11 19:11:07;;;;;;;55.40;23.97;;;;;-1.10;97188.00;;;;8265966;28;20273;-70
2024/01/11 19:15:12;;;;;;;56.53;23.07;;;;;-1.00;97192.00;;;;8264490;28;20196;-70
2024/01/11 19:19:15;;;;;;;56.03;23.90;;;;;-1.00;97192.00;;;;8264287;28;20548;-71
2024/01/11 19:23:19;;;;;;;53.87;22.40;;;;;-1.00;97200.00;;;;8266185;28;20302;-71
2024/01/11 19:27:23;;;;;;;52.47;21.27;;;;;-1.10;97201.00;;;;8264599;28;20254;-70
2024/01/11 19:31:27;;;;;;;57.73;20.63;;;;;-1.30;97206.00;;;;8264853;28;20320;-71
2024/01/11 19:35:30;;;;;;;58.60;23.43;;;;;-1.30;97206.00;;;;8265019;28;20195;-72
2024/01/11 19:39:34;;;;;;;55.87;22.20;;;;;-1.30;97203.00;;;;8267747;28;20195;-71
2024/01/11 19:43:45;;;;;;;60.87;22.43;;;;;-1.40;97217.00;;;;8271313;28;20199;-71
2024/01/11 19:47:50;;;;;;;49.40;22.13;;;;;-1.50;97216.00;;;;8271380;28;20199;-72
2024/01/11 19:51:53;;;;;;;53.57;21.40;;;;;-1.60;97209.00;;;;8270954;28;20265;-72
2024/01/11 19:55:56;;;;;;;48.53;20.77;;;;;-1.70;97227.00;;;;8270523;28;20227;-71